sensor_id;sensor_type;location;lat;lon;timestamp;temperature;humidity
18998;DHT22;9632;51.018;4.284;2023-01-15T00:00:19;10.30;99.90
18998;DHT22;9632;51.018;4.284;2023-01-15T00:02:45;10.30;99.90
18998;DHT22;9632;51.018;4.284;2023-01-15T00:05:11;10.30;99.90
18998;DHT22;9632;51.018;4.284;2023-01-15T00:07:37;10.30;99.90
18998;DHT22;9632;51.018;4.284;2023-01-15T00:10:03;10.30;99.90
18998;DHT22;9632;51.018;4.284;2023-01-15T00:12:28;10.30;99.90
18998;DHT22;9632;51.018;4.284;2023-01-15T00:14:54;10.20;99.90
18998;DHT22;9632;51.018;4.284;2023-01-15T00:17:22;10.20;99.90
18998;DHT22;9632;51.018;4.284;2023-01-15T00:19:47;10.30;99.90
18998;DHT22;9632;51.018;4.284;2023-01-15T00:22:13;10.30;99.90
18998;DHT22;9632;51.018;4.284;2023-01-15T00:24:39;10.30;99.90
18998;DHT22;9632;51.018;4.284;2023-01-15T00:27:23;10.30;99.90
18998;DHT22;9632;51.018;4.284;2023-01-15T00:30:05;10.30;99.90
18998;DHT22;9632;51.018;4.284;2023-01-15T00:32:34;10.30;99.90
18998;DHT22;9632;51.018;4.284;2023-01-15T00:35:00;10.30;99.90
18998;DHT22;9632;51.018;4.284;2023-01-15T00:37:26;10.20;99.90
18998;DHT22;9632;51.018;4.284;2023-01-15T00:39:52;10.20;99.90
18998;DHT22;9632;51.018;4.284;2023-01-15T00:42:17;10.20;99.90
18998;DHT22;9632;51.018;4.284;2023-01-15T00:44:43;10.20;99.90
18998;DHT22;9632;51.018;4.284;2023-01-15T00:47:09;10.20;99.90
18998;DHT22;9632;51.018;4.284;2023-01-15T00:49:42;10.20;99.90
18998;DHT22;9632;51.018;4.284;2023-01-15T00:52:09;10.20;99.90
18998;DHT22;9632;51.018;4.284;2023-01-15T00:54:34;10.20;99.90
18998;DHT22;9632;51.018;4.284;2023-01-15T00:57:00;10.20;99.90
18998;DHT22;9632;51.018;4.284;2023-01-15T00:59:26;10.20;99.90
18998;DHT22;9632;51.018;4.284;2023-01-15T01:01:51;10.30;99.90
18998;DHT22;9632;51.018;4.284;2023-01-15T01:04:17;10.20;99.90
18998;DHT22;9632;51.018;4.284;2023-01-15T01:06:43;10.10;99.90
18998;DHT22;9632;51.018;4.284;2023-01-15T01:09:15;10.10;99.90
18998;DHT22;9632;51.018;4.284;2023-01-15T01:11:41;10.10;99.90
18998;DHT22;9632;51.018;4.284;2023-01-15T01:14:09;10.10;99.90
18998;DHT22;9632;51.018;4.284;2023-01-15T01:16:37;10.10;99.90
18998;DHT22;9632;51.018;4.284;2023-01-15T01:19:06;10.10;99.90
18998;DHT22;9632;51.018;4.284;2023-01-15T01:21:34;10.10;99.90
18998;DHT22;9632;51.018;4.284;2023-01-15T01:24:00;10.10;99.90
18998;DHT22;9632;51.018;4.284;2023-01-15T01:26:26;10.00;99.90
18998;DHT22;9632;51.018;4.284;2023-01-15T01:28:53;10.00;99.90
18998;DHT22;9632;51.018;4.284;2023-01-15T01:31:19;10.00;99.90
18998;DHT22;9632;51.018;4.284;2023-01-15T01:33:54;10.00;99.90
18998;DHT22;9632;51.018;4.284;2023-01-15T01:36:24;10.00;99.90
18998;DHT22;9632;51.018;4.284;2023-01-15T01:38:50;10.00;99.90
18998;DHT22;9632;51.018;4.284;2023-01-15T01:41:17;9.90;99.90
18998;DHT22;9632;51.018;4.284;2023-01-15T01:46:17;9.90;99.90
18998;DHT22;9632;51.018;4.284;2023-01-15T01:48:43;9.90;99.90
18998;DHT22;9632;51.018;4.284;2023-01-15T01:51:10;9.90;99.90
18998;DHT22;9632;51.018;4.284;2023-01-15T01:53:36;9.90;99.90
18998;DHT22;9632;51.018;4.284;2023-01-15T01:56:02;9.90;99.90
18998;DHT22;9632;51.018;4.284;2023-01-15T01:58:29;9.90;99.90
18998;DHT22;9632;51.018;4.284;2023-01-15T02:00:57;9.90;99.90
18998;DHT22;9632;51.018;4.284;2023-01-15T02:03:29;9.90;99.90
18998;DHT22;9632;51.018;4.284;2023-01-15T02:05:57;9.80;99.90
18998;DHT22;9632;51.018;4.284;2023-01-15T02:08:24;9.80;99.90
18998;DHT22;9632;51.018;4.284;2023-01-15T02:10:53;9.80;99.90
18998;DHT22;9632;51.018;4.284;2023-01-15T02:16:06;9.80;99.90
18998;DHT22;9632;51.018;4.284;2023-01-15T02:18:59;9.80;99.90
18998;DHT22;9632;51.018;4.284;2023-01-15T02:24:06;9.80;99.90
18998;DHT22;9632;51.018;4.284;2023-01-15T02:29:26;9.80;99.90
18998;DHT22;9632;51.018;4.284;2023-01-15T02:31:54;9.80;99.90
18998;DHT22;9632;51.018;4.284;2023-01-15T02:34:28;9.80;99.90
18998;DHT22;9632;51.018;4.284;2023-01-15T02:37:02;9.80;99.90
18998;DHT22;9632;51.018;4.284;2023-01-15T02:39:30;9.80;99.90
18998;DHT22;9632;51.018;4.284;2023-01-15T02:41:59;9.80;99.90
18998;DHT22;9632;51.018;4.284;2023-01-15T02:44:28;9.80;99.90
18998;DHT22;9632;51.018;4.284;2023-01-15T02:46:56;9.80;99.90
18998;DHT22;9632;51.018;4.284;2023-01-15T02:49:22;9.80;99.90
18998;DHT22;9632;51.018;4.284;2023-01-15T02:51:58;9.70;99.90
18998;DHT22;9632;51.018;4.284;2023-01-15T02:54:29;9.80;99.90
18998;DHT22;9632;51.018;4.284;2023-01-15T02:56:58;9.70;99.90
18998;DHT22;9632;51.018;4.284;2023-01-15T02:59:37;9.70;99.90
18998;DHT22;9632;51.018;4.284;2023-01-15T03:02:06;9.70;99.90
18998;DHT22;9632;51.018;4.284;2023-01-15T03:04:55;9.60;99.90
18998;DHT22;9632;51.018;4.284;2023-01-15T03:07:36;9.60;99.90
18998;DHT22;9632;51.018;4.284;2023-01-15T03:10:05;9.60;99.90
18998;DHT22;9632;51.018;4.284;2023-01-15T03:12:42;9.60;99.90
18998;DHT22;9632;51.018;4.284;2023-01-15T03:15:38;9.60;99.90
18998;DHT22;9632;51.018;4.284;2023-01-15T03:18:25;9.60;99.90
18998;DHT22;9632;51.018;4.284;2023-01-15T03:20:55;9.50;99.90
18998;DHT22;9632;51.018;4.284;2023-01-15T03:23:23;9.50;99.90
18998;DHT22;9632;51.018;4.284;2023-01-15T03:25:51;9.40;99.90
18998;DHT22;9632;51.018;4.284;2023-01-15T03:28:22;9.30;99.90
18998;DHT22;9632;51.018;4.284;2023-01-15T03:30:49;9.40;99.90
18998;DHT22;9632;51.018;4.284;2023-01-15T03:33:16;9.40;99.90
18998;DHT22;9632;51.018;4.284;2023-01-15T03:35:53;9.40;99.90
18998;DHT22;9632;51.018;4.284;2023-01-15T03:38:24;9.40;99.90
18998;DHT22;9632;51.018;4.284;2023-01-15T03:43:34;9.50;99.90
18998;DHT22;9632;51.018;4.284;2023-01-15T03:48:46;9.40;99.90
18998;DHT22;9632;51.018;4.284;2023-01-15T03:51:21;9.40;99.90
18998;DHT22;9632;51.018;4.284;2023-01-15T03:53:50;9.40;99.90
18998;DHT22;9632;51.018;4.284;2023-01-15T03:56:21;9.40;99.90
18998;DHT22;9632;51.018;4.284;2023-01-15T04:01:18;9.40;99.90
18998;DHT22;9632;51.018;4.284;2023-01-15T04:03:45;9.40;99.90
18998;DHT22;9632;51.018;4.284;2023-01-15T04:06:13;9.30;99.90
18998;DHT22;9632;51.018;4.284;2023-01-15T04:08:41;9.30;99.90
18998;DHT22;9632;51.018;4.284;2023-01-15T04:11:08;9.30;99.90
18998;DHT22;9632;51.018;4.284;2023-01-15T04:13:34;9.30;99.90
18998;DHT22;9632;51.018;4.284;2023-01-15T04:16:00;9.30;99.90
18998;DHT22;9632;51.018;4.284;2023-01-15T04:18:26;9.30;99.90
18998;DHT22;9632;51.018;4.284;2023-01-15T04:20:51;9.30;99.90
18998;DHT22;9632;51.018;4.284;2023-01-15T04:23:19;9.30;99.90
18998;DHT22;9632;51.018;4.284;2023-01-15T04:25:44;9.20;99.90
18998;DHT22;9632;51.018;4.284;2023-01-15T04:28:10;9.20;99.90
18998;DHT22;9632;51.018;4.284;2023-01-15T04:30:37;9.20;99.90
18998;DHT22;9632;51.018;4.284;2023-01-15T04:33:03;9.20;99.90
18998;DHT22;9632;51.018;4.284;2023-01-15T04:35:29;9.20;99.90
18998;DHT22;9632;51.018;4.284;2023-01-15T04:37:56;9.20;99.90
18998;DHT22;9632;51.018;4.284;2023-01-15T04:40:21;9.20;99.90
18998;DHT22;9632;51.018;4.284;2023-01-15T04:43:13;9.20;99.90
18998;DHT22;9632;51.018;4.284;2023-01-15T04:45:58;9.10;99.90
18998;DHT22;9632;51.018;4.284;2023-01-15T04:48:24;9.10;99.90
18998;DHT22;9632;51.018;4.284;2023-01-15T04:50:50;9.20;99.90
18998;DHT22;9632;51.018;4.284;2023-01-15T04:53:16;9.10;99.90
18998;DHT22;9632;51.018;4.284;2023-01-15T04:55:41;9.10;99.90
18998;DHT22;9632;51.018;4.284;2023-01-15T04:58:07;9.00;99.90
18998;DHT22;9632;51.018;4.284;2023-01-15T05:00:33;9.00;99.90
18998;DHT22;9632;51.018;4.284;2023-01-15T05:02:58;9.00;99.90
18998;DHT22;9632;51.018;4.284;2023-01-15T05:05:24;9.00;99.90
18998;DHT22;9632;51.018;4.284;2023-01-15T05:07:50;9.00;99.90
18998;DHT22;9632;51.018;4.284;2023-01-15T05:10:15;9.00;99.90
18998;DHT22;9632;51.018;4.284;2023-01-15T05:12:41;9.00;99.90
18998;DHT22;9632;51.018;4.284;2023-01-15T05:15:07;8.90;99.90
18998;DHT22;9632;51.018;4.284;2023-01-15T05:17:32;9.00;99.90
18998;DHT22;9632;51.018;4.284;2023-01-15T05:19:58;8.90;99.90
18998;DHT22;9632;51.018;4.284;2023-01-15T05:22:24;8.90;99.90
18998;DHT22;9632;51.018;4.284;2023-01-15T05:24:49;8.90;99.90
18998;DHT22;9632;51.018;4.284;2023-01-15T05:27:15;9.00;99.90
18998;DHT22;9632;51.018;4.284;2023-01-15T05:29:41;9.00;99.90
18998;DHT22;9632;51.018;4.284;2023-01-15T05:32:07;8.90;99.90
18998;DHT22;9632;51.018;4.284;2023-01-15T05:34:32;8.90;99.90
18998;DHT22;9632;51.018;4.284;2023-01-15T05:36:58;8.90;99.90
18998;DHT22;9632;51.018;4.284;2023-01-15T05:39:23;8.90;99.90
18998;DHT22;9632;51.018;4.284;2023-01-15T05:41:49;8.90;99.90
18998;DHT22;9632;51.018;4.284;2023-01-15T05:44:26;8.90;99.90
18998;DHT22;9632;51.018;4.284;2023-01-15T05:46:54;8.80;99.90
18998;DHT22;9632;51.018;4.284;2023-01-15T05:49:22;8.90;99.90
18998;DHT22;9632;51.018;4.284;2023-01-15T05:51:48;8.80;99.90
18998;DHT22;9632;51.018;4.284;2023-01-15T05:54:16;8.80;99.90
18998;DHT22;9632;51.018;4.284;2023-01-15T05:56:43;8.80;99.90
18998;DHT22;9632;51.018;4.284;2023-01-15T05:59:11;8.90;99.90
18998;DHT22;9632;51.018;4.284;2023-01-15T06:01:37;8.80;99.90
18998;DHT22;9632;51.018;4.284;2023-01-15T06:04:04;8.80;99.90
18998;DHT22;9632;51.018;4.284;2023-01-15T06:06:30;8.60;99.90
18998;DHT22;9632;51.018;4.284;2023-01-15T06:08:56;8.60;99.90
18998;DHT22;9632;51.018;4.284;2023-01-15T06:11:22;8.60;99.90
18998;DHT22;9632;51.018;4.284;2023-01-15T06:13:48;8.60;99.90
18998;DHT22;9632;51.018;4.284;2023-01-15T06:16:14;8.60;99.90
18998;DHT22;9632;51.018;4.284;2023-01-15T06:18:40;8.40;99.90
18998;DHT22;9632;51.018;4.284;2023-01-15T06:21:10;8.30;99.90
18998;DHT22;9632;51.018;4.284;2023-01-15T06:23:37;8.40;99.90
18998;DHT22;9632;51.018;4.284;2023-01-15T06:26:05;8.20;99.90
18998;DHT22;9632;51.018;4.284;2023-01-15T06:28:32;8.10;99.90
18998;DHT22;9632;51.018;4.284;2023-01-15T06:30:58;8.10;99.90
18998;DHT22;9632;51.018;4.284;2023-01-15T06:33:23;8.00;99.90
18998;DHT22;9632;51.018;4.284;2023-01-15T06:35:49;8.00;99.90
18998;DHT22;9632;51.018;4.284;2023-01-15T06:38:15;8.00;99.90
18998;DHT22;9632;51.018;4.284;2023-01-15T06:40:41;8.00;99.90
18998;DHT22;9632;51.018;4.284;2023-01-15T06:43:10;8.00;99.90
18998;DHT22;9632;51.018;4.284;2023-01-15T06:45:55;7.90;99.90
18998;DHT22;9632;51.018;4.284;2023-01-15T06:48:40;7.90;99.90
18998;DHT22;9632;51.018;4.284;2023-01-15T06:51:07;7.90;99.90
18998;DHT22;9632;51.018;4.284;2023-01-15T06:53:33;7.90;99.90
18998;DHT22;9632;51.018;4.284;2023-01-15T06:56:00;7.90;99.90
18998;DHT22;9632;51.018;4.284;2023-01-15T06:58:26;7.80;99.90
18998;DHT22;9632;51.018;4.284;2023-01-15T07:00:52;7.70;99.90
18998;DHT22;9632;51.018;4.284;2023-01-15T07:03:21;7.70;99.90
18998;DHT22;9632;51.018;4.284;2023-01-15T07:05:47;7.80;99.90
18998;DHT22;9632;51.018;4.284;2023-01-15T07:08:13;7.80;99.90
18998;DHT22;9632;51.018;4.284;2023-01-15T07:10:39;7.80;99.90
18998;DHT22;9632;51.018;4.284;2023-01-15T07:13:05;7.70;99.90
18998;DHT22;9632;51.018;4.284;2023-01-15T07:15:31;7.70;99.90
18998;DHT22;9632;51.018;4.284;2023-01-15T07:17:59;7.70;99.90
18998;DHT22;9632;51.018;4.284;2023-01-15T07:20:25;7.60;99.90
18998;DHT22;9632;51.018;4.284;2023-01-15T07:22:51;7.70;99.90
18998;DHT22;9632;51.018;4.284;2023-01-15T07:25:17;7.70;99.90
18998;DHT22;9632;51.018;4.284;2023-01-15T07:27:42;7.70;99.90
18998;DHT22;9632;51.018;4.284;2023-01-15T07:30:10;7.70;99.90
18998;DHT22;9632;51.018;4.284;2023-01-15T07:32:36;7.70;99.90
18998;DHT22;9632;51.018;4.284;2023-01-15T07:35:02;7.70;99.90
18998;DHT22;9632;51.018;4.284;2023-01-15T07:37:28;7.60;99.90
18998;DHT22;9632;51.018;4.284;2023-01-15T07:39:53;7.60;99.90
18998;DHT22;9632;51.018;4.284;2023-01-15T07:42:19;7.60;99.90
18998;DHT22;9632;51.018;4.284;2023-01-15T07:45:04;7.60;99.90
18998;DHT22;9632;51.018;4.284;2023-01-15T07:47:48;7.60;99.90
18998;DHT22;9632;51.018;4.284;2023-01-15T07:50:32;7.70;99.90
18998;DHT22;9632;51.018;4.284;2023-01-15T07:52:57;7.70;99.90
18998;DHT22;9632;51.018;4.284;2023-01-15T07:55:23;7.60;99.90
18998;DHT22;9632;51.018;4.284;2023-01-15T07:57:49;7.60;99.90
18998;DHT22;9632;51.018;4.284;2023-01-15T08:00:20;7.50;99.90
18998;DHT22;9632;51.018;4.284;2023-01-15T08:02:46;7.60;99.90
18998;DHT22;9632;51.018;4.284;2023-01-15T08:05:14;7.60;99.90
18998;DHT22;9632;51.018;4.284;2023-01-15T08:07:40;7.40;99.90
18998;DHT22;9632;51.018;4.284;2023-01-15T08:10:08;7.50;99.90
18998;DHT22;9632;51.018;4.284;2023-01-15T08:12:34;7.50;99.90
18998;DHT22;9632;51.018;4.284;2023-01-15T08:15:19;7.60;99.90
18998;DHT22;9632;51.018;4.284;2023-01-15T08:17:46;7.50;99.90
18998;DHT22;9632;51.018;4.284;2023-01-15T08:20:22;7.50;99.90
18998;DHT22;9632;51.018;4.284;2023-01-15T08:22:48;7.50;99.90
18998;DHT22;9632;51.018;4.284;2023-01-15T08:25:16;7.50;99.90
18998;DHT22;9632;51.018;4.284;2023-01-15T08:27:42;7.60;99.90
18998;DHT22;9632;51.018;4.284;2023-01-15T08:30:12;7.60;99.90
18998;DHT22;9632;51.018;4.284;2023-01-15T08:32:38;7.50;99.90
18998;DHT22;9632;51.018;4.284;2023-01-15T08:35:04;7.50;99.90
18998;DHT22;9632;51.018;4.284;2023-01-15T08:37:30;7.50;99.90
18998;DHT22;9632;51.018;4.284;2023-01-15T08:39:55;7.50;99.90
18998;DHT22;9632;51.018;4.284;2023-01-15T08:42:21;7.50;99.90
18998;DHT22;9632;51.018;4.284;2023-01-15T08:44:47;7.40;99.90
18998;DHT22;9632;51.018;4.284;2023-01-15T08:47:14;7.50;99.90
18998;DHT22;9632;51.018;4.284;2023-01-15T08:49:40;7.50;99.90
18998;DHT22;9632;51.018;4.284;2023-01-15T08:52:06;7.50;99.90
18998;DHT22;9632;51.018;4.284;2023-01-15T08:54:31;7.50;99.90
18998;DHT22;9632;51.018;4.284;2023-01-15T08:56:58;7.60;99.90
18998;DHT22;9632;51.018;4.284;2023-01-15T08:59:24;7.50;99.90
18998;DHT22;9632;51.018;4.284;2023-01-15T09:01:50;7.50;99.90
18998;DHT22;9632;51.018;4.284;2023-01-15T09:04:17;7.60;99.90
18998;DHT22;9632;51.018;4.284;2023-01-15T09:06:44;7.70;99.90
18998;DHT22;9632;51.018;4.284;2023-01-15T09:09:11;7.70;99.90
18998;DHT22;9632;51.018;4.284;2023-01-15T09:11:37;7.80;99.90
18998;DHT22;9632;51.018;4.284;2023-01-15T09:14:10;7.90;99.90
18998;DHT22;9632;51.018;4.284;2023-01-15T09:16:36;7.90;99.90
18998;DHT22;9632;51.018;4.284;2023-01-15T09:19:03;8.00;99.90
18998;DHT22;9632;51.018;4.284;2023-01-15T09:21:29;7.90;99.90
18998;DHT22;9632;51.018;4.284;2023-01-15T09:23:54;8.00;99.90
18998;DHT22;9632;51.018;4.284;2023-01-15T09:26:37;8.00;99.90
18998;DHT22;9632;51.018;4.284;2023-01-15T09:29:04;8.00;99.90
18998;DHT22;9632;51.018;4.284;2023-01-15T09:31:30;8.10;99.90
18998;DHT22;9632;51.018;4.284;2023-01-15T09:33:56;8.10;99.90
18998;DHT22;9632;51.018;4.284;2023-01-15T09:39:03;7.90;99.90
18998;DHT22;9632;51.018;4.284;2023-01-15T09:47:19;8.20;99.90
18998;DHT22;9632;51.018;4.284;2023-01-15T09:53:04;8.30;99.90
18998;DHT22;9632;51.018;4.284;2023-01-15T09:55:41;8.40;99.90
18998;DHT22;9632;51.018;4.284;2023-01-15T09:58:10;8.30;99.90
18998;DHT22;9632;51.018;4.284;2023-01-15T10:00:40;8.20;99.90
18998;DHT22;9632;51.018;4.284;2023-01-15T10:05:55;8.30;99.90
18998;DHT22;9632;51.018;4.284;2023-01-15T10:08:28;8.20;99.90
18998;DHT22;9632;51.018;4.284;2023-01-15T10:11:03;8.30;99.90
18998;DHT22;9632;51.018;4.284;2023-01-15T10:13:42;8.10;99.90
18998;DHT22;9632;51.018;4.284;2023-01-15T10:16:10;8.20;99.90
18998;DHT22;9632;51.018;4.284;2023-01-15T10:18:37;8.10;99.90
18998;DHT22;9632;51.018;4.284;2023-01-15T10:21:14;8.10;99.90
18998;DHT22;9632;51.018;4.284;2023-01-15T10:37:21;8.20;99.90
18998;DHT22;9632;51.018;4.284;2023-01-15T10:45:24;8.10;99.90
18998;DHT22;9632;51.018;4.284;2023-01-15T10:47:59;8.00;99.90
18998;DHT22;9632;51.018;4.284;2023-01-15T10:50:26;8.20;99.90
18998;DHT22;9632;51.018;4.284;2023-01-15T10:55:43;8.40;99.90
18998;DHT22;9632;51.018;4.284;2023-01-15T11:00:49;8.30;99.90
18998;DHT22;9632;51.018;4.284;2023-01-15T11:03:21;8.30;99.90
18998;DHT22;9632;51.018;4.284;2023-01-15T11:05:48;8.30;99.90
18998;DHT22;9632;51.018;4.284;2023-01-15T11:08:24;8.40;99.90
18998;DHT22;9632;51.018;4.284;2023-01-15T11:10:57;8.40;99.90
18998;DHT22;9632;51.018;4.284;2023-01-15T11:13:29;8.50;99.90
18998;DHT22;9632;51.018;4.284;2023-01-15T11:16:21;8.40;99.90
18998;DHT22;9632;51.018;4.284;2023-01-15T11:19:23;8.60;99.90
18998;DHT22;9632;51.018;4.284;2023-01-15T11:22:06;8.70;99.90
18998;DHT22;9632;51.018;4.284;2023-01-15T11:24:36;8.60;99.90
18998;DHT22;9632;51.018;4.284;2023-01-15T11:27:05;8.70;99.90
18998;DHT22;9632;51.018;4.284;2023-01-15T11:29:34;8.80;99.90
18998;DHT22;9632;51.018;4.284;2023-01-15T11:32:01;8.70;99.90
18998;DHT22;9632;51.018;4.284;2023-01-15T11:34:27;8.90;99.90
18998;DHT22;9632;51.018;4.284;2023-01-15T11:37:03;8.80;99.90
18998;DHT22;9632;51.018;4.284;2023-01-15T11:39:30;8.90;99.90
18998;DHT22;9632;51.018;4.284;2023-01-15T11:42:02;8.90;99.90
18998;DHT22;9632;51.018;4.284;2023-01-15T11:44:55;8.90;99.90
18998;DHT22;9632;51.018;4.284;2023-01-15T11:47:50;8.90;99.90
18998;DHT22;9632;51.018;4.284;2023-01-15T11:50:34;8.90;99.90
18998;DHT22;9632;51.018;4.284;2023-01-15T11:53:15;9.00;99.90
18998;DHT22;9632;51.018;4.284;2023-01-15T11:55:52;8.90;99.90
18998;DHT22;9632;51.018;4.284;2023-01-15T11:58:18;8.90;99.90
18998;DHT22;9632;51.018;4.284;2023-01-15T12:00:48;8.80;99.90
18998;DHT22;9632;51.018;4.284;2023-01-15T12:03:17;8.80;99.90
18998;DHT22;9632;51.018;4.284;2023-01-15T12:05:57;8.90;99.90
18998;DHT22;9632;51.018;4.284;2023-01-15T12:11:30;9.10;99.90
18998;DHT22;9632;51.018;4.284;2023-01-15T12:14:22;9.00;99.90
18998;DHT22;9632;51.018;4.284;2023-01-15T12:17:40;9.10;99.90
18998;DHT22;9632;51.018;4.284;2023-01-15T12:20:33;9.20;99.90
18998;DHT22;9632;51.018;4.284;2023-01-15T12:25:47;9.10;99.90
18998;DHT22;9632;51.018;4.284;2023-01-15T12:28:24;9.30;99.90
18998;DHT22;9632;51.018;4.284;2023-01-15T12:31:11;9.20;99.90
18998;DHT22;9632;51.018;4.284;2023-01-15T12:33:47;9.10;99.90
18998;DHT22;9632;51.018;4.284;2023-01-15T12:36:21;9.00;99.90
18998;DHT22;9632;51.018;4.284;2023-01-15T12:39:42;9.00;99.90
18998;DHT22;9632;51.018;4.284;2023-01-15T12:42:02;9.00;99.90
18998;DHT22;9632;51.018;4.284;2023-01-15T12:44:52;9.00;99.90
18998;DHT22;9632;51.018;4.284;2023-01-15T12:52:50;9.00;99.90
18998;DHT22;9632;51.018;4.284;2023-01-15T12:55:24;9.10;99.90
18998;DHT22;9632;51.018;4.284;2023-01-15T12:57:55;9.10;99.90
18998;DHT22;9632;51.018;4.284;2023-01-15T13:01:02;9.10;99.90
18998;DHT22;9632;51.018;4.284;2023-01-15T13:06:16;9.20;99.90
18998;DHT22;9632;51.018;4.284;2023-01-15T13:11:47;9.10;99.90
18998;DHT22;9632;51.018;4.284;2023-01-15T13:14:16;9.20;99.90
18998;DHT22;9632;51.018;4.284;2023-01-15T13:21:55;9.30;99.90
18998;DHT22;9632;51.018;4.284;2023-01-15T13:32:48;9.20;99.90
18998;DHT22;9632;51.018;4.284;2023-01-15T13:35:29;9.20;99.90
18998;DHT22;9632;51.018;4.284;2023-01-15T13:37:59;9.20;99.90
18998;DHT22;9632;51.018;4.284;2023-01-15T13:40:41;9.30;99.90
18998;DHT22;9632;51.018;4.284;2023-01-15T13:43:37;9.20;99.90
18998;DHT22;9632;51.018;4.284;2023-01-15T13:46:12;9.20;99.90
18998;DHT22;9632;51.018;4.284;2023-01-15T13:48:44;9.30;99.90
18998;DHT22;9632;51.018;4.284;2023-01-15T13:51:40;9.30;99.90
18998;DHT22;9632;51.018;4.284;2023-01-15T13:54:17;9.20;99.90
18998;DHT22;9632;51.018;4.284;2023-01-15T13:56:43;9.00;99.90
18998;DHT22;9632;51.018;4.284;2023-01-15T14:01:59;8.90;99.90
18998;DHT22;9632;51.018;4.284;2023-01-15T14:04:35;8.80;99.90
18998;DHT22;9632;51.018;4.284;2023-01-15T14:07:01;8.80;99.90
18998;DHT22;9632;51.018;4.284;2023-01-15T14:09:28;8.80;99.90
18998;DHT22;9632;51.018;4.284;2023-01-15T14:12:26;8.70;99.90
18998;DHT22;9632;51.018;4.284;2023-01-15T14:15:29;8.70;99.90
18998;DHT22;9632;51.018;4.284;2023-01-15T14:21:21;8.60;99.90
18998;DHT22;9632;51.018;4.284;2023-01-15T14:24:00;8.60;99.90
18998;DHT22;9632;51.018;4.284;2023-01-15T14:34:21;8.70;99.90
18998;DHT22;9632;51.018;4.284;2023-01-15T14:36:55;8.80;99.90
18998;DHT22;9632;51.018;4.284;2023-01-15T14:39:35;8.80;99.90
18998;DHT22;9632;51.018;4.284;2023-01-15T14:50:38;8.70;99.90
18998;DHT22;9632;51.018;4.284;2023-01-15T14:53:17;8.70;99.90
18998;DHT22;9632;51.018;4.284;2023-01-15T14:55:49;8.60;99.90
18998;DHT22;9632;51.018;4.284;2023-01-15T15:00:56;8.60;99.90
18998;DHT22;9632;51.018;4.284;2023-01-15T15:03:33;8.60;99.90
18998;DHT22;9632;51.018;4.284;2023-01-15T15:06:01;8.60;99.90
18998;DHT22;9632;51.018;4.284;2023-01-15T15:08:30;8.60;99.90
18998;DHT22;9632;51.018;4.284;2023-01-15T15:10:58;8.70;99.90
18998;DHT22;9632;51.018;4.284;2023-01-15T15:13:31;8.60;99.90
18998;DHT22;9632;51.018;4.284;2023-01-15T15:16:06;8.60;99.90
18998;DHT22;9632;51.018;4.284;2023-01-15T15:18:41;8.50;99.90
18998;DHT22;9632;51.018;4.284;2023-01-15T15:21:21;8.50;99.90
18998;DHT22;9632;51.018;4.284;2023-01-15T15:24:02;8.40;99.90
18998;DHT22;9632;51.018;4.284;2023-01-15T15:26:34;8.50;99.90
18998;DHT22;9632;51.018;4.284;2023-01-15T15:29:17;8.40;99.90
18998;DHT22;9632;51.018;4.284;2023-01-15T15:31:56;8.30;99.90
18998;DHT22;9632;51.018;4.284;2023-01-15T15:34:31;8.30;99.90
18998;DHT22;9632;51.018;4.284;2023-01-15T15:37:00;8.20;99.90
18998;DHT22;9632;51.018;4.284;2023-01-15T15:39:54;8.30;99.90
18998;DHT22;9632;51.018;4.284;2023-01-15T15:42:25;8.20;99.90
18998;DHT22;9632;51.018;4.284;2023-01-15T15:45:30;8.20;99.90
18998;DHT22;9632;51.018;4.284;2023-01-15T15:48:27;8.20;99.90
18998;DHT22;9632;51.018;4.284;2023-01-15T15:56:39;8.10;99.90
18998;DHT22;9632;51.018;4.284;2023-01-15T15:59:13;8.10;99.90
18998;DHT22;9632;51.018;4.284;2023-01-15T16:01:40;8.10;99.90
18998;DHT22;9632;51.018;4.284;2023-01-15T16:04:14;7.90;99.90
18998;DHT22;9632;51.018;4.284;2023-01-15T16:06:42;7.90;99.90
18998;DHT22;9632;51.018;4.284;2023-01-15T16:09:08;7.80;99.90
18998;DHT22;9632;51.018;4.284;2023-01-15T16:11:35;7.70;99.90
18998;DHT22;9632;51.018;4.284;2023-01-15T16:14:04;7.70;99.90
18998;DHT22;9632;51.018;4.284;2023-01-15T16:16:31;7.70;99.90
18998;DHT22;9632;51.018;4.284;2023-01-15T16:18:58;7.60;99.90
18998;DHT22;9632;51.018;4.284;2023-01-15T16:21:33;7.60;99.90
18998;DHT22;9632;51.018;4.284;2023-01-15T16:24:05;7.50;99.90
18998;DHT22;9632;51.018;4.284;2023-01-15T16:26:37;7.40;99.90
18998;DHT22;9632;51.018;4.284;2023-01-15T16:29:12;7.20;99.90
18998;DHT22;9632;51.018;4.284;2023-01-15T16:31:40;7.30;99.90
18998;DHT22;9632;51.018;4.284;2023-01-15T16:34:06;7.30;99.90
18998;DHT22;9632;51.018;4.284;2023-01-15T16:36:40;7.30;99.90
18998;DHT22;9632;51.018;4.284;2023-01-15T16:39:22;7.30;99.90
18998;DHT22;9632;51.018;4.284;2023-01-15T16:41:48;7.30;99.90
18998;DHT22;9632;51.018;4.284;2023-01-15T16:44:58;7.30;99.90
18998;DHT22;9632;51.018;4.284;2023-01-15T16:47:24;7.30;99.90
18998;DHT22;9632;51.018;4.284;2023-01-15T16:49:51;7.30;99.90
18998;DHT22;9632;51.018;4.284;2023-01-15T16:55:45;7.30;99.90
18998;DHT22;9632;51.018;4.284;2023-01-15T17:00:36;7.30;99.90
18998;DHT22;9632;51.018;4.284;2023-01-15T17:03:13;7.40;99.90
18998;DHT22;9632;51.018;4.284;2023-01-15T17:05:40;7.30;99.90
18998;DHT22;9632;51.018;4.284;2023-01-15T17:08:32;7.30;99.90
18998;DHT22;9632;51.018;4.284;2023-01-15T17:11:04;7.40;99.90
18998;DHT22;9632;51.018;4.284;2023-01-15T17:13:37;7.50;99.90
18998;DHT22;9632;51.018;4.284;2023-01-15T17:16:22;7.40;99.90
18998;DHT22;9632;51.018;4.284;2023-01-15T17:18:49;7.40;99.90
18998;DHT22;9632;51.018;4.284;2023-01-15T17:21:21;7.40;99.90
18998;DHT22;9632;51.018;4.284;2023-01-15T17:23:52;7.40;99.90
18998;DHT22;9632;51.018;4.284;2023-01-15T17:26:25;7.50;99.90
18998;DHT22;9632;51.018;4.284;2023-01-15T17:28:51;7.50;99.90
18998;DHT22;9632;51.018;4.284;2023-01-15T17:31:28;7.50;99.90
18998;DHT22;9632;51.018;4.284;2023-01-15T17:33:55;7.50;99.90
18998;DHT22;9632;51.018;4.284;2023-01-15T17:36:21;7.40;99.90
18998;DHT22;9632;51.018;4.284;2023-01-15T17:38:47;7.50;99.90
18998;DHT22;9632;51.018;4.284;2023-01-15T17:41:15;7.50;99.90
18998;DHT22;9632;51.018;4.284;2023-01-15T17:43:41;7.50;99.90
18998;DHT22;9632;51.018;4.284;2023-01-15T17:46:07;7.50;99.90
18998;DHT22;9632;51.018;4.284;2023-01-15T17:48:33;7.50;99.90
18998;DHT22;9632;51.018;4.284;2023-01-15T17:51:03;7.50;99.90
18998;DHT22;9632;51.018;4.284;2023-01-15T17:53:29;7.50;99.90
18998;DHT22;9632;51.018;4.284;2023-01-15T17:55:59;7.60;99.90
18998;DHT22;9632;51.018;4.284;2023-01-15T17:58:43;7.60;99.90
18998;DHT22;9632;51.018;4.284;2023-01-15T18:01:29;7.60;99.90
18998;DHT22;9632;51.018;4.284;2023-01-15T18:07:33;7.70;99.90
18998;DHT22;9632;51.018;4.284;2023-01-15T18:10:02;7.80;99.90
18998;DHT22;9632;51.018;4.284;2023-01-15T18:12:28;7.80;99.90
18998;DHT22;9632;51.018;4.284;2023-01-15T18:14:55;7.90;99.90
18998;DHT22;9632;51.018;4.284;2023-01-15T18:17:20;7.90;99.90
18998;DHT22;9632;51.018;4.284;2023-01-15T18:19:46;7.90;99.90
18998;DHT22;9632;51.018;4.284;2023-01-15T18:22:12;8.00;99.90
18998;DHT22;9632;51.018;4.284;2023-01-15T18:24:38;7.90;99.90
18998;DHT22;9632;51.018;4.284;2023-01-15T18:27:04;7.90;99.90
18998;DHT22;9632;51.018;4.284;2023-01-15T18:29:30;7.90;99.90
18998;DHT22;9632;51.018;4.284;2023-01-15T18:31:56;7.90;99.90